sensor_id;sensor_type;location;lat;lon;timestamp;temperature;humidity
19180;DHT22;9722;48.754;8.868;2023-05-15T00:02:47;9.90;99.90
19180;DHT22;9722;48.754;8.868;2023-05-15T00:06:08;9.90;99.90
19180;DHT22;9722;48.754;8.868;2023-05-15T00:09:29;9.90;99.90
19180;DHT22;9722;48.754;8.868;2023-05-15T00:12:49;9.80;99.90
19180;DHT22;9722;48.754;8.868;2023-05-15T00:16:10;9.80;99.90
19180;DHT22;9722;48.754;8.868;2023-05-15T00:19:30;9.70;99.90
19180;DHT22;9722;48.754;8.868;2023-05-15T00:22:51;9.70;99.90
19180;DHT22;9722;48.754;8.868;2023-05-15T00:26:11;9.70;99.90
19180;DHT22;9722;48.754;8.868;2023-05-15T00:29:34;9.60;99.90
19180;DHT22;9722;48.754;8.868;2023-05-15T00:32:55;9.50;99.90
19180;DHT22;9722;48.754;8.868;2023-05-15T00:36:16;9.50;99.90
19180;DHT22;9722;48.754;8.868;2023-05-15T00:39:36;9.40;99.90
19180;DHT22;9722;48.754;8.868;2023-05-15T00:42:58;9.30;99.90
19180;DHT22;9722;48.754;8.868;2023-05-15T00:46:20;9.30;99.90
19180;DHT22;9722;48.754;8.868;2023-05-15T00:49:41;9.30;99.90
19180;DHT22;9722;48.754;8.868;2023-05-15T00:53:02;9.30;99.90
19180;DHT22;9722;48.754;8.868;2023-05-15T00:56:24;9.40;99.90
19180;DHT22;9722;48.754;8.868;2023-05-15T00:59:45;9.50;99.90
19180;DHT22;9722;48.754;8.868;2023-05-15T01:03:07;9.50;99.90
19180;DHT22;9722;48.754;8.868;2023-05-15T01:06:29;9.50;99.90
19180;DHT22;9722;48.754;8.868;2023-05-15T01:09:51;9.50;99.90
19180;DHT22;9722;48.754;8.868;2023-05-15T01:13:13;9.50;99.90
19180;DHT22;9722;48.754;8.868;2023-05-15T01:16:35;9.40;99.90
19180;DHT22;9722;48.754;8.868;2023-05-15T01:19:56;9.60;99.90
19180;DHT22;9722;48.754;8.868;2023-05-15T01:30:40;9.80;99.90
19180;DHT22;9722;48.754;8.868;2023-05-15T01:34:03;9.90;99.90
19180;DHT22;9722;48.754;8.868;2023-05-15T01:37:28;10.00;99.90
19180;DHT22;9722;48.754;8.868;2023-05-15T01:40:56;10.10;99.90
19180;DHT22;9722;48.754;8.868;2023-05-15T01:44:26;10.20;99.90
19180;DHT22;9722;48.754;8.868;2023-05-15T01:47:48;10.30;99.90
19180;DHT22;9722;48.754;8.868;2023-05-15T01:51:10;10.30;99.90
19180;DHT22;9722;48.754;8.868;2023-05-15T01:54:33;10.40;99.90
19180;DHT22;9722;48.754;8.868;2023-05-15T01:57:56;10.50;99.90
19180;DHT22;9722;48.754;8.868;2023-05-15T02:01:19;10.50;99.90
19180;DHT22;9722;48.754;8.868;2023-05-15T02:04:41;10.50;99.90
19180;DHT22;9722;48.754;8.868;2023-05-15T02:08:02;10.60;99.90
19180;DHT22;9722;48.754;8.868;2023-05-15T02:11:24;10.60;99.90
19180;DHT22;9722;48.754;8.868;2023-05-15T02:14:45;10.70;99.90
19180;DHT22;9722;48.754;8.868;2023-05-15T02:18:07;10.70;99.90
19180;DHT22;9722;48.754;8.868;2023-05-15T02:21:28;10.70;99.90
19180;DHT22;9722;48.754;8.868;2023-05-15T02:24:48;10.80;99.90
19180;DHT22;9722;48.754;8.868;2023-05-15T02:28:16;10.80;99.90
19180;DHT22;9722;48.754;8.868;2023-05-15T02:35:41;10.90;99.90
19180;DHT22;9722;48.754;8.868;2023-05-15T02:39:03;10.90;99.90
19180;DHT22;9722;48.754;8.868;2023-05-15T02:42:27;10.90;99.90
19180;DHT22;9722;48.754;8.868;2023-05-15T02:45:49;10.80;99.90
19180;DHT22;9722;48.754;8.868;2023-05-15T02:49:10;10.90;99.90
19180;DHT22;9722;48.754;8.868;2023-05-15T02:52:32;10.80;99.90
19180;DHT22;9722;48.754;8.868;2023-05-15T02:55:54;10.80;99.90
19180;DHT22;9722;48.754;8.868;2023-05-15T02:59:14;10.80;99.90
19180;DHT22;9722;48.754;8.868;2023-05-15T03:02:39;10.80;99.90
19180;DHT22;9722;48.754;8.868;2023-05-15T03:05:59;10.80;99.90
19180;DHT22;9722;48.754;8.868;2023-05-15T03:09:20;10.80;99.90
19180;DHT22;9722;48.754;8.868;2023-05-15T03:12:40;10.90;99.90
19180;DHT22;9722;48.754;8.868;2023-05-15T03:16:01;10.90;99.90
19180;DHT22;9722;48.754;8.868;2023-05-15T03:19:21;10.80;99.90
19180;DHT22;9722;48.754;8.868;2023-05-15T03:22:42;10.80;99.90
19180;DHT22;9722;48.754;8.868;2023-05-15T03:26:02;10.70;99.90
19180;DHT22;9722;48.754;8.868;2023-05-15T03:29:23;10.60;99.90
19180;DHT22;9722;48.754;8.868;2023-05-15T03:32:43;10.60;99.90
19180;DHT22;9722;48.754;8.868;2023-05-15T03:36:04;10.60;99.90
19180;DHT22;9722;48.754;8.868;2023-05-15T03:39:25;10.60;99.90
19180;DHT22;9722;48.754;8.868;2023-05-15T03:42:46;10.60;99.90
19180;DHT22;9722;48.754;8.868;2023-05-15T03:46:07;10.60;99.90
19180;DHT22;9722;48.754;8.868;2023-05-15T03:49:27;10.60;99.90
19180;DHT22;9722;48.754;8.868;2023-05-15T03:52:48;10.60;99.90
19180;DHT22;9722;48.754;8.868;2023-05-15T03:56:08;10.60;99.90
19180;DHT22;9722;48.754;8.868;2023-05-15T03:59:29;10.60;99.90
19180;DHT22;9722;48.754;8.868;2023-05-15T04:02:50;10.60;99.90
19180;DHT22;9722;48.754;8.868;2023-05-15T04:06:10;10.60;99.90
19180;DHT22;9722;48.754;8.868;2023-05-15T04:09:31;10.60;99.90
19180;DHT22;9722;48.754;8.868;2023-05-15T04:12:51;10.70;99.90
19180;DHT22;9722;48.754;8.868;2023-05-15T04:16:12;10.80;99.90
19180;DHT22;9722;48.754;8.868;2023-05-15T04:19:33;10.80;99.90
19180;DHT22;9722;48.754;8.868;2023-05-15T04:22:54;10.90;99.90
19180;DHT22;9722;48.754;8.868;2023-05-15T04:26:14;10.90;99.90
19180;DHT22;9722;48.754;8.868;2023-05-15T04:29:35;10.90;99.90
19180;DHT22;9722;48.754;8.868;2023-05-15T04:32:55;10.80;99.90
19180;DHT22;9722;48.754;8.868;2023-05-15T04:36:16;10.80;99.90
19180;DHT22;9722;48.754;8.868;2023-05-15T04:39:36;10.70;99.90
19180;DHT22;9722;48.754;8.868;2023-05-15T04:42:57;10.70;99.90
19180;DHT22;9722;48.754;8.868;2023-05-15T04:46:17;10.80;99.90
19180;DHT22;9722;48.754;8.868;2023-05-15T04:49:40;10.90;99.90
19180;DHT22;9722;48.754;8.868;2023-05-15T04:53:00;11.00;99.90
19180;DHT22;9722;48.754;8.868;2023-05-15T04:56:21;11.20;99.90
19180;DHT22;9722;48.754;8.868;2023-05-15T04:59:41;11.30;99.90
19180;DHT22;9722;48.754;8.868;2023-05-15T05:03:02;11.50;99.90
19180;DHT22;9722;48.754;8.868;2023-05-15T05:06:24;11.70;99.90
19180;DHT22;9722;48.754;8.868;2023-05-15T05:09:44;11.90;99.90
19180;DHT22;9722;48.754;8.868;2023-05-15T05:13:05;12.10;99.90
19180;DHT22;9722;48.754;8.868;2023-05-15T05:16:25;12.20;99.90
19180;DHT22;9722;48.754;8.868;2023-05-15T05:19:46;12.30;99.90
19180;DHT22;9722;48.754;8.868;2023-05-15T05:23:06;12.30;99.90
19180;DHT22;9722;48.754;8.868;2023-05-15T05:26:27;12.40;99.90
19180;DHT22;9722;48.754;8.868;2023-05-15T05:29:47;12.50;99.90
19180;DHT22;9722;48.754;8.868;2023-05-15T05:33:08;12.50;99.90
19180;DHT22;9722;48.754;8.868;2023-05-15T05:36:28;12.80;99.90
19180;DHT22;9722;48.754;8.868;2023-05-15T05:39:49;13.10;99.90
19180;DHT22;9722;48.754;8.868;2023-05-15T05:43:09;13.40;99.80
19180;DHT22;9722;48.754;8.868;2023-05-15T05:46:30;13.70;99.30
19180;DHT22;9722;48.754;8.868;2023-05-15T05:49:51;13.90;98.90
19180;DHT22;9722;48.754;8.868;2023-05-15T05:53:11;14.10;98.40
19180;DHT22;9722;48.754;8.868;2023-05-15T05:56:32;14.30;97.90
19180;DHT22;9722;48.754;8.868;2023-05-15T05:59:52;14.60;97.30
19180;DHT22;9722;48.754;8.868;2023-05-15T06:03:13;14.80;96.70
19180;DHT22;9722;48.754;8.868;2023-05-15T06:06:34;14.80;96.10
19180;DHT22;9722;48.754;8.868;2023-05-15T06:09:54;15.30;96.00
19180;DHT22;9722;48.754;8.868;2023-05-15T06:13:15;15.90;94.90
19180;DHT22;9722;48.754;8.868;2023-05-15T06:16:36;16.60;93.60
19180;DHT22;9722;48.754;8.868;2023-05-15T06:19:57;17.30;92.20
19180;DHT22;9722;48.754;8.868;2023-05-15T06:23:17;17.60;90.70
19180;DHT22;9722;48.754;8.868;2023-05-15T06:26:38;17.50;90.20
19180;DHT22;9722;48.754;8.868;2023-05-15T06:29:59;17.80;89.50
19180;DHT22;9722;48.754;8.868;2023-05-15T06:33:19;18.10;87.50
19180;DHT22;9722;48.754;8.868;2023-05-15T06:36:41;18.70;85.90
19180;DHT22;9722;48.754;8.868;2023-05-15T06:40:03;19.20;83.50
19180;DHT22;9722;48.754;8.868;2023-05-15T06:43:23;19.70;80.70
19180;DHT22;9722;48.754;8.868;2023-05-15T06:46:44;20.00;78.60
19180;DHT22;9722;48.754;8.868;2023-05-15T06:50:05;20.50;75.80
19180;DHT22;9722;48.754;8.868;2023-05-15T06:53:25;21.00;73.10
19180;DHT22;9722;48.754;8.868;2023-05-15T06:56:46;21.50;69.90
19180;DHT22;9722;48.754;8.868;2023-05-15T07:00:07;21.80;68.50
19180;DHT22;9722;48.754;8.868;2023-05-15T07:03:28;22.00;66.50
19180;DHT22;9722;48.754;8.868;2023-05-15T07:06:48;22.30;65.30
19180;DHT22;9722;48.754;8.868;2023-05-15T07:10:09;22.70;64.10
19180;DHT22;9722;48.754;8.868;2023-05-15T07:13:30;23.20;62.40
19180;DHT22;9722;48.754;8.868;2023-05-15T07:16:50;23.60;60.30
19180;DHT22;9722;48.754;8.868;2023-05-15T07:20:11;24.00;59.30
19180;DHT22;9722;48.754;8.868;2023-05-15T07:23:31;24.20;58.20
19180;DHT22;9722;48.754;8.868;2023-05-15T07:26:52;24.60;57.30
19180;DHT22;9722;48.754;8.868;2023-05-15T07:30:14;24.90;56.10
19180;DHT22;9722;48.754;8.868;2023-05-15T07:33:34;25.20;55.20
19180;DHT22;9722;48.754;8.868;2023-05-15T07:36:55;25.40;54.50
19180;DHT22;9722;48.754;8.868;2023-05-15T07:40:15;25.50;53.40
19180;DHT22;9722;48.754;8.868;2023-05-15T07:43:36;25.70;52.50
19180;DHT22;9722;48.754;8.868;2023-05-15T07:46:57;26.00;52.10
19180;DHT22;9722;48.754;8.868;2023-05-15T07:50:18;26.20;51.50
19180;DHT22;9722;48.754;8.868;2023-05-15T07:53:39;26.30;51.00
19180;DHT22;9722;48.754;8.868;2023-05-15T07:56:59;26.60;50.50
19180;DHT22;9722;48.754;8.868;2023-05-15T08:00:20;26.80;49.50
19180;DHT22;9722;48.754;8.868;2023-05-15T08:03:41;27.00;49.00
19180;DHT22;9722;48.754;8.868;2023-05-15T08:07:02;27.30;48.00
19180;DHT22;9722;48.754;8.868;2023-05-15T08:10:22;27.60;47.70
19180;DHT22;9722;48.754;8.868;2023-05-15T08:13:43;28.00;47.00
19180;DHT22;9722;48.754;8.868;2023-05-15T08:17:03;28.30;46.50
19180;DHT22;9722;48.754;8.868;2023-05-15T08:20:24;28.60;45.80
19180;DHT22;9722;48.754;8.868;2023-05-15T08:23:45;28.90;44.90
19180;DHT22;9722;48.754;8.868;2023-05-15T08:27:07;29.20;44.30
19180;DHT22;9722;48.754;8.868;2023-05-15T08:30:27;29.40;43.80
19180;DHT22;9722;48.754;8.868;2023-05-15T08:33:48;29.60;43.40
19180;DHT22;9722;48.754;8.868;2023-05-15T08:37:08;29.70;43.10
19180;DHT22;9722;48.754;8.868;2023-05-15T08:40:29;29.90;42.70
19180;DHT22;9722;48.754;8.868;2023-05-15T08:43:51;29.90;42.30
19180;DHT22;9722;48.754;8.868;2023-05-15T08:47:13;30.10;41.60
19180;DHT22;9722;48.754;8.868;2023-05-15T08:50:37;29.70;41.40
19180;DHT22;9722;48.754;8.868;2023-05-15T08:53:57;28.70;42.80
19180;DHT22;9722;48.754;8.868;2023-05-15T08:57:18;28.60;43.10
19180;DHT22;9722;48.754;8.868;2023-05-15T09:00:39;28.70;43.10
19180;DHT22;9722;48.754;8.868;2023-05-15T09:04:00;29.10;42.90
19180;DHT22;9722;48.754;8.868;2023-05-15T09:07:20;29.70;41.90
19180;DHT22;9722;48.754;8.868;2023-05-15T09:10:42;30.00;41.50
19180;DHT22;9722;48.754;8.868;2023-05-15T09:14:03;30.40;41.30
19180;DHT22;9722;48.754;8.868;2023-05-15T09:17:24;30.90;40.50
19180;DHT22;9722;48.754;8.868;2023-05-15T09:20:44;31.40;40.00
19180;DHT22;9722;48.754;8.868;2023-05-15T09:24:22;31.90;39.40
19180;DHT22;9722;48.754;8.868;2023-05-15T09:27:44;32.40;39.30
19180;DHT22;9722;48.754;8.868;2023-05-15T09:31:05;32.90;38.60
19180;DHT22;9722;48.754;8.868;2023-05-15T09:34:34;33.30;37.30
19180;DHT22;9722;48.754;8.868;2023-05-15T09:37:59;33.60;36.40
19180;DHT22;9722;48.754;8.868;2023-05-15T09:41:23;33.90;35.20
19180;DHT22;9722;48.754;8.868;2023-05-15T09:44:45;33.90;34.90
19180;DHT22;9722;48.754;8.868;2023-05-15T09:48:06;34.20;34.50
19180;DHT22;9722;48.754;8.868;2023-05-15T09:51:27;34.50;34.10
19180;DHT22;9722;48.754;8.868;2023-05-15T09:54:48;34.60;33.60
19180;DHT22;9722;48.754;8.868;2023-05-15T09:58:13;34.80;34.00
19180;DHT22;9722;48.754;8.868;2023-05-15T10:01:34;35.20;33.60
19180;DHT22;9722;48.754;8.868;2023-05-15T10:04:56;35.10;33.10
19180;DHT22;9722;48.754;8.868;2023-05-15T10:08:25;33.60;34.20
19180;DHT22;9722;48.754;8.868;2023-05-15T10:11:50;31.80;35.30
19180;DHT22;9722;48.754;8.868;2023-05-15T10:15:12;30.00;36.70
19180;DHT22;9722;48.754;8.868;2023-05-15T10:18:35;29.30;38.30
19180;DHT22;9722;48.754;8.868;2023-05-15T10:21:57;30.10;38.00
19180;DHT22;9722;48.754;8.868;2023-05-15T10:25:49;31.20;37.00
19180;DHT22;9722;48.754;8.868;2023-05-15T10:29:13;32.40;36.90
19180;DHT22;9722;48.754;8.868;2023-05-15T10:32:34;33.20;34.80
19180;DHT22;9722;48.754;8.868;2023-05-15T10:35:56;32.60;34.10
19180;DHT22;9722;48.754;8.868;2023-05-15T10:39:18;31.40;35.00
19180;DHT22;9722;48.754;8.868;2023-05-15T10:42:41;31.50;35.90
19180;DHT22;9722;48.754;8.868;2023-05-15T10:46:03;32.50;35.60
19180;DHT22;9722;48.754;8.868;2023-05-15T10:49:24;33.60;34.10
19180;DHT22;9722;48.754;8.868;2023-05-15T10:52:45;34.60;33.00
19180;DHT22;9722;48.754;8.868;2023-05-15T10:56:06;34.70;32.20
19180;DHT22;9722;48.754;8.868;2023-05-15T10:59:32;34.10;32.40
19180;DHT22;9722;48.754;8.868;2023-05-15T11:02:53;33.90;32.80
19180;DHT22;9722;48.754;8.868;2023-05-15T11:06:16;33.60;33.40
19180;DHT22;9722;48.754;8.868;2023-05-15T11:09:37;32.20;34.20
19180;DHT22;9722;48.754;8.868;2023-05-15T11:13:00;30.70;35.20
19180;DHT22;9722;48.754;8.868;2023-05-15T11:20:14;31.10;35.90
19180;DHT22;9722;48.754;8.868;2023-05-15T11:23:39;32.70;34.10
19180;DHT22;9722;48.754;8.868;2023-05-15T11:27:01;34.30;32.80
19180;DHT22;9722;48.754;8.868;2023-05-15T11:30:36;35.70;31.40
19180;DHT22;9722;48.754;8.868;2023-05-15T11:34:04;36.20;29.90
19180;DHT22;9722;48.754;8.868;2023-05-15T11:37:24;34.90;30.00
19180;DHT22;9722;48.754;8.868;2023-05-15T11:40:53;33.30;30.70
19180;DHT22;9722;48.754;8.868;2023-05-15T11:44:21;31.80;32.20
19180;DHT22;9722;48.754;8.868;2023-05-15T11:47:42;32.10;33.30
19180;DHT22;9722;48.754;8.868;2023-05-15T11:51:05;33.40;32.40
19180;DHT22;9722;48.754;8.868;2023-05-15T11:54:33;34.80;30.50
19180;DHT22;9722;48.754;8.868;2023-05-15T11:57:54;36.10;29.70
19180;DHT22;9722;48.754;8.868;2023-05-15T12:01:14;37.50;28.70
19180;DHT22;9722;48.754;8.868;2023-05-15T12:04:35;38.60;28.50
19180;DHT22;9722;48.754;8.868;2023-05-15T12:07:57;39.50;28.00
19180;DHT22;9722;48.754;8.868;2023-05-15T12:11:21;40.20;27.40
19180;DHT22;9722;48.754;8.868;2023-05-15T12:14:41;40.40;27.10
19180;DHT22;9722;48.754;8.868;2023-05-15T12:18:02;39.50;27.10
19180;DHT22;9722;48.754;8.868;2023-05-15T12:21:25;39.00;27.40
19180;DHT22;9722;48.754;8.868;2023-05-15T12:24:46;39.00;27.20
19180;DHT22;9722;48.754;8.868;2023-05-15T12:28:07;37.70;27.00
19180;DHT22;9722;48.754;8.868;2023-05-15T12:31:27;36.50;27.60
19180;DHT22;9722;48.754;8.868;2023-05-15T12:34:48;37.00;27.40
19180;DHT22;9722;48.754;8.868;2023-05-15T12:38:13;38.00;27.60
19180;DHT22;9722;48.754;8.868;2023-05-15T12:41:36;39.20;26.90
19180;DHT22;9722;48.754;8.868;2023-05-15T12:44:57;39.80;26.50
19180;DHT22;9722;48.754;8.868;2023-05-15T12:48:18;38.60;26.50
19180;DHT22;9722;48.754;8.868;2023-05-15T12:51:42;36.40;27.90
19180;DHT22;9722;48.754;8.868;2023-05-15T12:55:03;34.10;30.10
19180;DHT22;9722;48.754;8.868;2023-05-15T12:58:23;32.50;31.60
19180;DHT22;9722;48.754;8.868;2023-05-15T13:01:44;32.60;33.00
19180;DHT22;9722;48.754;8.868;2023-05-15T13:05:04;33.70;32.10
19180;DHT22;9722;48.754;8.868;2023-05-15T13:08:25;34.70;32.00
19180;DHT22;9722;48.754;8.868;2023-05-15T13:11:45;35.60;30.90
19180;DHT22;9722;48.754;8.868;2023-05-15T13:15:06;35.30;30.20
19180;DHT22;9722;48.754;8.868;2023-05-15T13:18:27;34.90;30.50
19180;DHT22;9722;48.754;8.868;2023-05-15T13:21:47;35.20;31.10
19180;DHT22;9722;48.754;8.868;2023-05-15T13:25:10;35.80;30.80
19180;DHT22;9722;48.754;8.868;2023-05-15T13:28:32;35.50;30.00
19180;DHT22;9722;48.754;8.868;2023-05-15T13:31:52;34.90;30.30
19180;DHT22;9722;48.754;8.868;2023-05-15T13:35:13;33.80;30.70
19180;DHT22;9722;48.754;8.868;2023-05-15T13:38:34;32.40;31.70
19180;DHT22;9722;48.754;8.868;2023-05-15T13:41:54;31.20;33.00
19180;DHT22;9722;48.754;8.868;2023-05-15T13:45:15;30.10;34.10
19180;DHT22;9722;48.754;8.868;2023-05-15T13:48:35;29.10;35.70
19180;DHT22;9722;48.754;8.868;2023-05-15T13:51:56;28.30;36.50
19180;DHT22;9722;48.754;8.868;2023-05-15T13:55:16;27.60;37.60
19180;DHT22;9722;48.754;8.868;2023-05-15T13:58:37;27.00;38.50
19180;DHT22;9722;48.754;8.868;2023-05-15T14:01:59;26.50;39.00
19180;DHT22;9722;48.754;8.868;2023-05-15T14:05:20;26.10;39.70
19180;DHT22;9722;48.754;8.868;2023-05-15T14:08:40;25.80;40.00
19180;DHT22;9722;48.754;8.868;2023-05-15T14:12:01;25.60;39.80
19180;DHT22;9722;48.754;8.868;2023-05-15T14:15:21;25.50;39.90
19180;DHT22;9722;48.754;8.868;2023-05-15T14:18:42;25.40;39.90
19180;DHT22;9722;48.754;8.868;2023-05-15T14:22:03;25.30;40.00
19180;DHT22;9722;48.754;8.868;2023-05-15T14:25:23;25.30;40.40
19180;DHT22;9722;48.754;8.868;2023-05-15T14:28:44;25.30;40.40
19180;DHT22;9722;48.754;8.868;2023-05-15T14:32:05;25.30;40.70
19180;DHT22;9722;48.754;8.868;2023-05-15T14:35:26;25.20;40.80
19180;DHT22;9722;48.754;8.868;2023-05-15T14:38:46;25.00;40.90
19180;DHT22;9722;48.754;8.868;2023-05-15T14:42:09;24.80;41.00
19180;DHT22;9722;48.754;8.868;2023-05-15T14:45:30;24.70;40.90
19180;DHT22;9722;48.754;8.868;2023-05-15T14:48:50;24.50;41.20
19180;DHT22;9722;48.754;8.868;2023-05-15T14:52:11;24.30;41.60
19180;DHT22;9722;48.754;8.868;2023-05-15T14:55:31;24.20;41.70
19180;DHT22;9722;48.754;8.868;2023-05-15T14:58:52;24.10;41.80
19180;DHT22;9722;48.754;8.868;2023-05-15T15:02:13;24.00;42.20
19180;DHT22;9722;48.754;8.868;2023-05-15T15:05:33;23.90;42.00
19180;DHT22;9722;48.754;8.868;2023-05-15T15:08:53;23.80;41.90
19180;DHT22;9722;48.754;8.868;2023-05-15T15:12:14;23.70;41.80
19180;DHT22;9722;48.754;8.868;2023-05-15T15:15:35;23.60;42.20
19180;DHT22;9722;48.754;8.868;2023-05-15T15:18:56;23.40;42.30
19180;DHT22;9722;48.754;8.868;2023-05-15T15:22:17;23.20;42.90
19180;DHT22;9722;48.754;8.868;2023-05-15T15:25:37;23.10;43.70
19180;DHT22;9722;48.754;8.868;2023-05-15T15:28:58;23.00;44.70
19180;DHT22;9722;48.754;8.868;2023-05-15T15:32:20;22.80;44.90
19180;DHT22;9722;48.754;8.868;2023-05-15T15:35:40;22.50;45.20
19180;DHT22;9722;48.754;8.868;2023-05-15T15:39:02;22.20;45.60
19180;DHT22;9722;48.754;8.868;2023-05-15T15:42:23;22.00;46.20
19180;DHT22;9722;48.754;8.868;2023-05-15T15:45:44;21.80;46.60
19180;DHT22;9722;48.754;8.868;2023-05-15T15:49:04;21.70;46.30
19180;DHT22;9722;48.754;8.868;2023-05-15T15:52:26;21.70;46.50
19180;DHT22;9722;48.754;8.868;2023-05-15T15:55:46;21.70;46.50
19180;DHT22;9722;48.754;8.868;2023-05-15T15:59:07;21.70;46.70
19180;DHT22;9722;48.754;8.868;2023-05-15T16:02:28;21.60;47.10
19180;DHT22;9722;48.754;8.868;2023-05-15T16:05:48;21.50;47.40
19180;DHT22;9722;48.754;8.868;2023-05-15T16:09:09;21.20;48.20
19180;DHT22;9722;48.754;8.868;2023-05-15T16:12:29;20.70;49.20
19180;DHT22;9722;48.754;8.868;2023-05-15T16:15:50;20.30;50.50
19180;DHT22;9722;48.754;8.868;2023-05-15T16:19:11;20.00;51.60
19180;DHT22;9722;48.754;8.868;2023-05-15T16:22:32;19.60;52.30
19180;DHT22;9722;48.754;8.868;2023-05-15T16:25:52;19.30;53.10
19180;DHT22;9722;48.754;8.868;2023-05-15T16:29:13;19.00;53.70
19180;DHT22;9722;48.754;8.868;2023-05-15T16:32:34;18.80;54.30
19180;DHT22;9722;48.754;8.868;2023-05-15T16:35:54;18.60;54.70
19180;DHT22;9722;48.754;8.868;2023-05-15T16:39:15;18.50;55.10
19180;DHT22;9722;48.754;8.868;2023-05-15T16:42:35;18.40;55.70
19180;DHT22;9722;48.754;8.868;2023-05-15T16:45:56;18.20;55.90
19180;DHT22;9722;48.754;8.868;2023-05-15T16:49:17;18.20;56.20
19180;DHT22;9722;48.754;8.868;2023-05-15T16:52:37;18.20;56.20
19180;DHT22;9722;48.754;8.868;2023-05-15T16:56:04;18.30;56.40
19180;DHT22;9722;48.754;8.868;2023-05-15T16:59:25;18.40;56.20
19180;DHT22;9722;48.754;8.868;2023-05-15T17:02:45;18.40;55.70
19180;DHT22;9722;48.754;8.868;2023-05-15T17:06:06;18.50;55.60
19180;DHT22;9722;48.754;8.868;2023-05-15T17:09:27;18.50;55.60
19180;DHT22;9722;48.754;8.868;2023-05-15T17:12:47;18.60;55.40
19180;DHT22;9722;48.754;8.868;2023-05-15T17:16:08;18.70;55.40
19180;DHT22;9722;48.754;8.868;2023-05-15T17:19:28;18.90;55.40
19180;DHT22;9722;48.754;8.868;2023-05-15T17:22:49;19.00;55.00
19180;DHT22;9722;48.754;8.868;2023-05-15T17:26:09;19.10;55.10
19180;DHT22;9722;48.754;8.868;2023-05-15T17:29:30;19.10;55.10
19180;DHT22;9722;48.754;8.868;2023-05-15T17:32:51;19.10;55.50
19180;DHT22;9722;48.754;8.868;2023-05-15T17:36:13;19.00;56.00
19180;DHT22;9722;48.754;8.868;2023-05-15T17:39:33;18.80;56.40
19180;DHT22;9722;48.754;8.868;2023-05-15T17:42:54;18.70;56.80
19180;DHT22;9722;48.754;8.868;2023-05-15T17:46:15;18.50;57.10
19180;DHT22;9722;48.754;8.868;2023-05-15T17:49:36;18.30;57.90
19180;DHT22;9722;48.754;8.868;2023-05-15T17:52:57;18.20;57.50
19180;DHT22;9722;48.754;8.868;2023-05-15T17:56:18;18.00;57.00
19180;DHT22;9722;48.754;8.868;2023-05-15T17:59:38;17.80;56.60
19180;DHT22;9722;48.754;8.868;2023-05-15T18:02:59;17.70;56.60
19180;DHT22;9722;48.754;8.868;2023-05-15T18:06:20;17.60;56.50
19180;DHT22;9722;48.754;8.868;2023-05-15T18:09:40;17.40;56.50
19180;DHT22;9722;48.754;8.868;2023-05-15T18:13:01;17.30;56.80
19180;DHT22;9722;48.754;8.868;2023-05-15T18:16:22;17.20;56.90
19180;DHT22;9722;48.754;8.868;2023-05-15T18:19:43;17.10;57.20
19180;DHT22;9722;48.754;8.868;2023-05-15T18:23:04;17.00;57.60
19180;DHT22;9722;48.754;8.868;2023-05-15T18:26:24;17.00;58.00
19180;DHT22;9722;48.754;8.868;2023-05-15T18:29:45;16.80;58.10
19180;DHT22;9722;48.754;8.868;2023-05-15T18:33:06;16.70;58.70
19180;DHT22;9722;48.754;8.868;2023-05-15T18:36:27;16.60;59.30
19180;DHT22;9722;48.754;8.868;2023-05-15T18:39:47;16.50;59.90
19180;DHT22;9722;48.754;8.868;2023-05-15T18:43:08;16.40;60.60
19180;DHT22;9722;48.754;8.868;2023-05-15T18:46:28;16.30;61.50
19180;DHT22;9722;48.754;8.868;2023-05-15T18:49:50;16.20;62.60
19180;DHT22;9722;48.754;8.868;2023-05-15T18:53:11;16.20;63.60
19180;DHT22;9722;48.754;8.868;2023-05-15T18:56:32;16.10;64.60
19180;DHT22;9722;48.754;8.868;2023-05-15T18:59:52;16.00;65.40
19180;DHT22;9722;48.754;8.868;2023-05-15T19:03:13;15.90;66.60
19180;DHT22;9722;48.754;8.868;2023-05-15T19:06:34;15.70;67.60
19180;DHT22;9722;48.754;8.868;2023-05-15T19:09:55;15.60;68.40
19180;DHT22;9722;48.754;8.868;2023-05-15T19:13:18;15.50;69.20
19180;DHT22;9722;48.754;8.868;2023-05-15T19:16:39;15.50;70.20
19180;DHT22;9722;48.754;8.868;2023-05-15T19:19:59;15.40;70.90
19180;DHT22;9722;48.754;8.868;2023-05-15T19:23:20;15.30;71.50
19180;DHT22;9722;48.754;8.868;2023-05-15T19:26:40;15.30;72.20
19180;DHT22;9722;48.754;8.868;2023-05-15T19:30:01;15.20;72.80
19180;DHT22;9722;48.754;8.868;2023-05-15T19:33:21;15.20;73.30
19180;DHT22;9722;48.754;8.868;2023-05-15T19:36:42;15.10;73.80
19180;DHT22;9722;48.754;8.868;2023-05-15T19:40:05;15.00;73.90
19180;DHT22;9722;48.754;8.868;2023-05-15T19:43:26;15.00;74.70
19180;DHT22;9722;48.754;8.868;2023-05-15T19:46:46;14.90;75.20
19180;DHT22;9722;48.754;8.868;2023-05-15T19:50:08;14.80;75.80
19180;DHT22;9722;48.754;8.868;2023-05-15T19:53:29;14.70;76.40
19180;DHT22;9722;48.754;8.868;2023-05-15T19:56:49;14.60;77.10
19180;DHT22;9722;48.754;8.868;2023-05-15T20:00:10;14.50;77.70
19180;DHT22;9722;48.754;8.868;2023-05-15T20:03:31;14.50;78.30
19180;DHT22;9722;48.754;8.868;2023-05-15T20:06:52;14.40;79.10
19180;DHT22;9722;48.754;8.868;2023-05-15T20:10:13;14.40;80.40
19180;DHT22;9722;48.754;8.868;2023-05-15T20:13:37;14.30;80.90
19180;DHT22;9722;48.754;8.868;2023-05-15T20:16:58;14.30;81.30
19180;DHT22;9722;48.754;8.868;2023-05-15T20:20:19;14.20;82.30
19180;DHT22;9722;48.754;8.868;2023-05-15T20:23:39;14.20;82.90
19180;DHT22;9722;48.754;8.868;2023-05-15T20:27:00;14.20;83.60
19180;DHT22;9722;48.754;8.868;2023-05-15T20:30:23;14.20;84.40
19180;DHT22;9722;48.754;8.868;2023-05-15T20:33:44;14.10;84.60
19180;DHT22;9722;48.754;8.868;2023-05-15T20:37:04;14.10;85.20
19180;DHT22;9722;48.754;8.868;2023-05-15T20:40:25;14.10;85.90
19180;DHT22;9722;48.754;8.868;2023-05-15T20:43:46;14.10;87.10
19180;DHT22;9722;48.754;8.868;2023-05-15T20:47:06;14.10;88.10
19180;DHT22;9722;48.754;8.868;2023-05-15T20:50:27;14.00;89.10
19180;DHT22;9722;48.754;8.868;2023-05-15T20:53:47;14.00;90.00
19180;DHT22;9722;48.754;8.868;2023-05-15T20:57:08;14.00;90.60
19180;DHT22;9722;48.754;8.868;2023-05-15T21:00:28;13.90;90.40
19180;DHT22;9722;48.754;8.868;2023-05-15T21:03:49;13.90;90.60
19180;DHT22;9722;48.754;8.868;2023-05-15T21:07:10;13.80;90.70
19180;DHT22;9722;48.754;8.868;2023-05-15T21:10:30;13.80;90.80
19180;DHT22;9722;48.754;8.868;2023-05-15T21:13:51;13.80;91.00
19180;DHT22;9722;48.754;8.868;2023-05-15T21:17:11;13.70;91.10
19180;DHT22;9722;48.754;8.868;2023-05-15T21:20:32;13.60;91.20
19180;DHT22;9722;48.754;8.868;2023-05-15T21:23:52;13.50;91.60
19180;DHT22;9722;48.754;8.868;2023-05-15T21:27:13;13.50;92.00
19180;DHT22;9722;48.754;8.868;2023-05-15T21:30:33;13.50;92.40
19180;DHT22;9722;48.754;8.868;2023-05-15T21:33:54;13.50;92.70
19180;DHT22;9722;48.754;8.868;2023-05-15T21:37:14;13.50;93.10
19180;DHT22;9722;48.754;8.868;2023-05-15T21:40:35;13.50;93.30
19180;DHT22;9722;48.754;8.868;2023-05-15T21:43:55;13.50;93.70
19180;DHT22;9722;48.754;8.868;2023-05-15T21:47:16;13.50;94.00
19180;DHT22;9722;48.754;8.868;2023-05-15T21:50:37;13.50;94.30